createdAt,value
2024-05-09T00:00:56.709Z,97438.06
2024-05-09T00:03:28.062Z,97443.09
2024-05-09T00:05:58.926Z,97438.34
2024-05-09T00:08:30.112Z,97433.63
2024-05-09T00:11:01.036Z,97430.13
2024-05-09T00:13:31.845Z,97435.63
2024-05-09T00:16:05.302Z,97434.88
2024-05-09T00:18:36.244Z,97431.84
2024-05-09T00:21:07.821Z,97435.81
2024-05-09T00:23:39.068Z,97436.03
2024-05-09T00:26:09.988Z,97441.22
2024-05-09T00:28:40.805Z,97440.19
2024-05-09T00:31:14.288Z,97434.41
2024-05-09T00:33:45.152Z,97436.13
2024-05-09T00:36:16.018Z,97441.31
2024-05-09T00:38:47.605Z,97438.09
2024-05-09T00:41:19.764Z,97436.31
2024-05-09T00:43:50.879Z,97431.28
2024-05-09T00:46:24.648Z,97436.50
2024-05-09T00:48:55.993Z,97432.25
2024-05-09T00:51:27.105Z,97434.16
2024-05-09T00:53:58.022Z,97436.31
2024-05-09T00:56:29.634Z,97431.78
2024-05-09T00:59:00.524Z,97429.97
2024-05-09T01:01:34.846Z,97429.69
2024-05-09T01:04:05.886Z,97424.72
2024-05-09T01:06:36.876Z,97429.91
2024-05-09T01:09:07.741Z,97438.59
2024-05-09T01:11:40.865Z,97427.81
2024-05-09T01:14:11.865Z,97429.34
2024-05-09T01:16:45.471Z,97422.81
2024-05-09T01:19:26.356Z,97426.31
2024-05-09T01:21:57.450Z,97422.50
2024-05-09T01:24:30.917Z,97425.25
2024-05-09T01:27:01.739Z,97430.75
2024-05-09T01:29:33.229Z,97421.47
2024-05-09T01:32:05.056Z,97421.94
2024-05-09T01:34:35.971Z,97423.13
2024-05-09T01:37:07.166Z,97417.88
2024-05-09T01:39:41.260Z,97421.25
2024-05-09T01:42:12.021Z,97422.97
2024-05-09T01:44:43.580Z,97421.91
2024-05-09T01:47:14.500Z,97422.38
2024-05-09T01:53:29.800Z,97417.06
2024-05-09T01:56:03.462Z,97410.09
2024-05-09T01:58:34.345Z,97409.06
2024-05-09T02:01:05.314Z,97409.53
2024-05-09T02:03:36.303Z,97403.00
2024-05-09T02:06:08.109Z,97405.47
2024-05-09T02:08:39.591Z,97408.66
2024-05-09T02:11:13.482Z,97407.63
2024-05-09T02:13:44.640Z,97405.34
2024-05-09T02:16:17.044Z,97408.56
2024-05-09T02:18:48.060Z,97404.31
2024-05-09T02:21:18.930Z,97405.53
2024-05-09T02:23:49.887Z,97404.78
2024-05-09T02:26:23.561Z,97401.75
2024-05-09T02:28:54.422Z,97404.47
2024-05-09T02:31:25.290Z,97399.00
2024-05-09T02:33:56.471Z,97402.25
2024-05-09T02:36:27.488Z,97400.72
2024-05-09T02:38:55.631Z,97407.41
2024-05-09T02:41:30.040Z,97397.69
2024-05-09T02:43:58.448Z,97397.69
2024-05-09T02:46:29.353Z,97393.44
2024-05-09T02:48:57.679Z,97394.66
2024-05-09T02:51:28.625Z,97393.16
2024-05-09T02:53:57.489Z,97398.34
2024-05-09T02:56:30.968Z,97405.78
2024-05-09T02:58:59.635Z,97406.25
2024-05-09T03:01:30.489Z,97399.28
2024-05-09T03:03:58.843Z,97403.22
2024-05-09T03:06:29.760Z,97396.72
2024-05-09T03:08:57.954Z,97387.72
2024-05-09T03:11:31.594Z,97393.22
2024-05-09T03:13:59.972Z,97391.69
2024-05-09T03:16:31.193Z,97392.16
2024-05-09T03:18:59.384Z,97396.91
2024-05-09T03:21:30.288Z,97395.41
2024-05-09T03:23:58.605Z,97401.34
2024-05-09T03:26:32.165Z,97389.81
2024-05-09T03:29:00.714Z,97393.28
2024-05-09T03:31:32.032Z,97396.03
2024-05-09T03:34:00.376Z,97395.28
2024-05-09T03:36:31.387Z,97397.72
2024-05-09T03:39:02.165Z,97392.72
2024-05-09T03:41:35.825Z,97393.19
2024-05-09T03:44:07.344Z,97398.66
2024-05-09T03:46:38.240Z,97389.69
2024-05-09T03:49:09.347Z,97388.94
2024-05-09T03:51:37.656Z,97386.66
2024-05-09T03:54:08.749Z,97383.91
2024-05-09T03:56:39.945Z,97384.69
2024-05-09T03:59:11.816Z,97389.41
2024-05-09T04:01:40.209Z,97388.63
2024-05-09T04:04:12.467Z,97387.88
2024-05-09T04:06:40.931Z,97382.41
2024-05-09T04:09:12.218Z,97391.84
2024-05-09T04:11:43.202Z,97398.06
2024-05-09T04:14:14.124Z,97395.78
2024-05-09T04:16:42.815Z,97394.28
2024-05-09T04:19:13.923Z,97384.59
2024-05-09T04:21:42.246Z,97396.75
2024-05-09T04:24:13.099Z,97388.53
2024-05-09T04:26:44.013Z,97396.75
2024-05-09T04:29:14.889Z,97395.25
2024-05-09T04:31:43.164Z,97394.47
2024-05-09T04:34:14.103Z,97395.69
2024-05-09T04:36:44.570Z,97391.00
2024-05-09T04:39:15.581Z,97392.50
2024-05-09T04:41:46.411Z,97388.25
2024-05-09T04:44:17.568Z,97387.94
2024-05-09T04:46:47.063Z,97387.94
2024-05-09T04:49:18.269Z,97400.38
2024-05-09T04:51:46.808Z,97391.13
2024-05-09T04:54:29.544Z,97393.56
2024-05-09T04:57:05.062Z,97399.97
2024-05-09T04:59:36.531Z,97398.75
2024-05-09T05:02:05.313Z,97392.53
2024-05-09T05:04:36.327Z,97389.03
2024-05-09T05:07:04.923Z,97385.81
2024-05-09T05:09:35.655Z,97394.03
2024-05-09T05:12:27.411Z,97388.56
2024-05-09T05:14:58.246Z,97397.53
2024-05-09T05:17:26.578Z,97394.78
2024-05-09T05:19:57.792Z,97401.03
2024-05-09T05:22:28.678Z,97400.25
2024-05-09T05:24:56.824Z,97399.03
2024-05-09T05:27:30.994Z,97407.25
2024-05-09T05:29:59.414Z,97399.03
2024-05-09T05:32:30.487Z,97409.25
2024-05-09T05:34:58.757Z,97406.97
2024-05-09T05:37:29.646Z,97406.50
2024-05-09T05:39:58.331Z,97418.19
2024-05-09T05:42:31.856Z,97413.94
2024-05-09T05:45:00.173Z,97411.69
2024-05-09T05:47:31.156Z,97422.16
2024-05-09T05:49:59.528Z,97414.88
2024-05-09T05:52:30.344Z,97419.13
2024-05-09T05:54:58.697Z,97415.16
2024-05-09T05:57:32.135Z,97415.16
2024-05-09T06:00:02.187Z,97422.16
2024-05-09T06:02:43.040Z,97417.16
2024-05-09T06:05:11.452Z,97423.84
2024-05-09T06:07:42.330Z,97421.09
2024-05-09T06:10:17.335Z,97423.56
2024-05-09T06:12:55.164Z,97425.34
2024-05-09T06:15:23.444Z,97425.34
2024-05-09T06:17:54.473Z,97419.13
2024-05-09T06:20:31.586Z,97418.66
2024-05-09T06:23:07.164Z,97419.88
2024-05-09T06:25:35.910Z,97412.44
2024-05-09T06:28:09.857Z,97416.69
2024-05-09T06:30:42.213Z,97424.91
2024-05-09T06:33:16.083Z,97413.94
2024-05-09T06:35:46.652Z,97422.16
2024-05-09T06:38:17.593Z,97424.44
2024-05-09T06:40:45.877Z,97415.75
2024-05-09T06:43:20.315Z,97416.53
2024-05-09T06:45:49.312Z,97422.75
2024-05-09T06:48:21.841Z,97425.03
2024-05-09T06:50:50.857Z,97421.84
2024-05-09T06:53:24.924Z,97419.88
2024-05-09T06:55:53.712Z,97422.16
2024-05-09T06:58:27.209Z,97417.88
2024-05-09T07:00:55.419Z,97419.41
2024-05-09T07:03:26.350Z,97423.91
2024-05-09T07:05:54.641Z,97423.91
2024-05-09T07:08:25.569Z,97432.13
2024-05-09T07:10:54.112Z,97417.97
2024-05-09T07:13:28.635Z,97425.44
2024-05-09T07:15:56.807Z,97429.22
2024-05-09T07:18:27.840Z,97433.66
2024-05-09T07:20:56.222Z,97431.50
2024-05-09T07:23:27.187Z,97429.53
2024-05-09T07:25:55.512Z,97438.97
2024-05-09T07:28:29.003Z,97436.50
2024-05-09T07:30:57.243Z,97431.50
2024-05-09T07:33:28.368Z,97428.75
2024-05-09T07:35:57.651Z,97433.78
2024-05-09T07:38:28.515Z,97434.53
2024-05-09T07:40:56.840Z,97425.84
2024-05-09T07:43:30.690Z,97426.63
2024-05-09T07:46:23.023Z,97437.84
2024-05-09T07:53:57.156Z,97421.25
2024-05-09T07:56:28.286Z,97423.53
2024-05-09T07:59:01.912Z,97419.84
2024-05-09T08:01:30.555Z,97422.09
2024-05-09T08:04:01.572Z,97419.66
2024-05-09T08:06:29.875Z,97418.44
2024-05-09T08:09:05.431Z,97422.69
2024-05-09T08:11:36.302Z,97419.94
2024-05-09T08:14:09.760Z,97411.72
2024-05-09T08:16:37.935Z,97418.72
2024-05-09T08:19:08.923Z,97412.78
2024-05-09T08:21:37.327Z,97415.06
2024-05-09T08:24:10.546Z,97404.84
2024-05-09T08:26:39.898Z,97420.06
2024-05-09T08:29:13.384Z,97410.63
2024-05-09T08:31:41.848Z,97411.69
2024-05-09T08:34:12.856Z,97408.94
2024-05-09T08:36:41.197Z,97415.44
2024-05-09T08:39:11.995Z,97416.47
2024-05-09T08:41:43.058Z,97414.50
2024-05-09T08:44:17.030Z,97410.53
2024-05-09T08:46:48.177Z,97417.81
2024-05-09T08:49:19.194Z,97413.09
2024-05-09T08:51:47.780Z,97414.63
2024-05-09T08:54:19.888Z,97408.38
2024-05-09T08:56:54.181Z,97414.91
2024-05-09T08:59:34.953Z,97415.94
2024-05-09T09:02:06.254Z,97405.75
2024-05-09T09:04:43.230Z,97408.78
2024-05-09T09:07:12.430Z,97410.28
2024-05-09T09:09:46.493Z,97399.59
2024-05-09T09:12:15.020Z,97407.34
2024-05-09T09:14:48.578Z,97408.84
2024-05-09T09:17:17.517Z,97405.19
2024-05-09T09:19:48.823Z,97402.53
2024-05-09T09:22:19.868Z,97401.78
2024-05-09T09:24:51.573Z,97404.25
2024-05-09T09:27:20.087Z,97393.56
2024-05-09T09:29:54.074Z,97396.59
2024-05-09T09:32:28.542Z,97392.91
2024-05-09T09:34:59.401Z,97389.25
2024-05-09T09:37:29.958Z,97389.50
2024-05-09T09:40:03.240Z,97380.84
2024-05-09T09:42:36.455Z,97382.63
2024-05-09T09:45:11.006Z,97383.69
2024-05-09T09:47:41.697Z,97380.47
2024-05-09T09:50:17.119Z,97373.00
2024-05-09T09:52:52.030Z,97372.53
2024-05-09T09:55:25.365Z,97377.53
2024-05-09T09:57:56.568Z,97374.31
2024-05-09T10:00:33.285Z,97366.84
2024-05-09T10:03:02.551Z,97373.84
2024-05-09T10:05:36.589Z,97369.88
2024-05-09T10:08:08.472Z,97373.38
2024-05-09T10:10:39.874Z,97364.66
2024-05-09T10:13:08.949Z,97359.47
2024-05-09T10:15:51.124Z,97358.22
2024-05-09T10:18:27.875Z,97359.94
2024-05-09T10:21:01.022Z,97355.50
2024-05-09T10:23:31.040Z,97357.28
2024-05-09T10:26:04.806Z,97367.03
2024-05-09T10:28:36.061Z,97361.06
2024-05-09T10:31:14.582Z,97350.38
2024-05-09T10:33:48.122Z,97341.88
2024-05-09T10:36:23.112Z,97335.91
2024-05-09T10:38:52.831Z,97337.44
2024-05-09T10:41:25.336Z,97337.16
2024-05-09T10:43:53.479Z,97335.16
2024-05-09T10:46:27.383Z,97335.44
2024-05-09T10:48:59.625Z,97335.72
2024-05-09T10:51:32.593Z,97327.03
2024-05-09T10:54:00.880Z,97324.56
2024-05-09T10:56:31.763Z,97317.34
2024-05-09T10:59:00.002Z,97320.38
2024-05-09T11:01:34.200Z,97314.13
2024-05-09T11:04:04.180Z,97312.16
2024-05-09T11:06:38.217Z,97321.59
2024-05-09T11:09:07.846Z,97314.13
2024-05-09T11:11:38.816Z,97310.91
2024-05-09T11:14:13.087Z,97308.47
2024-05-09T11:16:46.542Z,97307.97
2024-05-09T11:19:15.096Z,97309.50
2024-05-09T11:21:46.286Z,97313.47
2024-05-09T11:24:15.467Z,97313.47
2024-05-09T11:26:46.256Z,97317.91
2024-05-09T11:29:15.731Z,97314.88
2024-05-09T11:31:51.248Z,97304.16
2024-05-09T11:34:19.689Z,97297.41
2024-05-09T11:36:50.679Z,97303.63
2024-05-09T11:39:19.100Z,97296.94
2024-05-09T11:41:49.931Z,97296.44
2024-05-09T11:44:18.219Z,97294.00
2024-05-09T11:46:51.839Z,97289.53
2024-05-09T11:49:21.462Z,97296.06
2024-05-09T11:51:53.370Z,97288.59
2024-05-09T11:54:21.656Z,97291.13
2024-05-09T11:56:52.614Z,97287.91
2024-05-09T11:59:20.812Z,97291.69
2024-05-09T12:01:54.459Z,97298.66
2024-05-09T12:04:22.871Z,97290.72
2024-05-09T12:06:53.936Z,97284.75
2024-05-09T12:09:22.443Z,97282.75
2024-05-09T12:11:53.395Z,97273.28
2024-05-09T12:14:21.623Z,97271.59
2024-05-09T12:16:55.154Z,97267.13
2024-05-09T12:19:23.649Z,97271.38
2024-05-09T12:21:54.843Z,97266.19
2024-05-09T12:24:25.171Z,97258.72
2024-05-09T12:26:56.059Z,97259.19
2024-05-09T12:29:24.471Z,97261.16
2024-05-09T12:31:58.078Z,97253.69
2024-05-09T12:34:26.383Z,97250.94
2024-05-09T12:36:57.527Z,97251.22
2024-05-09T12:39:25.717Z,97248.00
2024-05-09T12:41:56.510Z,97243.03
2024-05-09T12:44:24.717Z,97242.75
2024-05-09T12:46:58.210Z,97242.84
2024-05-09T12:49:26.694Z,97244.69
2024-05-09T12:51:57.628Z,97250.50
2024-05-09T12:54:25.835Z,97236.28
2024-05-09T12:56:56.871Z,97241.28
2024-05-09T12:59:25.114Z,97240.53
2024-05-09T13:02:00.534Z,97241.28
2024-05-09T13:04:29.421Z,97238.81
2024-05-09T13:07:00.400Z,97240.13
2024-05-09T13:09:28.744Z,97235.38
2024-05-09T13:11:59.932Z,97233.94
2024-05-09T13:14:28.172Z,97235.47
2024-05-09T13:17:01.866Z,97227.50
2024-05-09T13:19:30.099Z,97223.25
2024-05-09T13:22:00.944Z,97220.97
2024-05-09T13:24:29.131Z,97218.91
2024-05-09T13:27:00.020Z,97214.72
2024-05-09T13:29:28.265Z,97219.22
2024-05-09T13:32:01.745Z,97212.00
2024-05-09T13:34:29.983Z,97216.53
2024-05-09T13:37:01.523Z,97218.31
2024-05-09T13:39:29.800Z,97219.31
2024-05-09T13:42:00.656Z,97207.84
2024-05-09T13:44:28.825Z,97209.38
2024-05-09T13:47:02.433Z,97205.38
2024-05-09T13:49:30.870Z,97202.91
2024-05-09T13:52:01.694Z,97199.63
2024-05-09T13:54:29.987Z,97187.50
2024-05-09T13:57:01.440Z,97192.22
2024-05-09T13:59:29.546Z,97183.69
2024-05-09T14:02:03.045Z,97179.25
2024-05-09T14:04:31.631Z,97186.31
2024-05-09T14:07:02.725Z,97185.31
2024-05-09T14:09:31.131Z,97174.09
2024-05-09T14:12:02.033Z,97170.63
2024-05-09T14:14:30.231Z,97179.34
2024-05-09T14:17:03.955Z,97170.13
2024-05-09T14:19:32.111Z,97162.16
2024-05-09T14:22:06.220Z,97165.41
2024-05-09T14:24:34.496Z,97170.91
2024-05-09T14:27:05.406Z,97162.66
2024-05-09T14:29:35.354Z,97164.16
2024-05-09T14:32:09.329Z,97161.91
2024-05-09T14:34:37.641Z,97161.91
2024-05-09T14:37:08.739Z,97154.41
2024-05-09T14:39:37.015Z,97155.66
2024-05-09T14:42:08.125Z,97150.63
2024-05-09T14:44:36.678Z,97145.63
2024-05-09T14:47:10.775Z,97143.16
2024-05-09T14:49:39.467Z,97149.41
2024-05-09T14:52:10.431Z,97147.91
2024-05-09T14:54:38.755Z,97141.63
2024-05-09T14:57:09.622Z,97144.63
2024-05-09T14:59:37.798Z,97139.13
2024-05-09T15:02:11.519Z,97142.13
2024-05-09T15:04:39.969Z,97139.66
2024-05-09T15:07:13.154Z,97133.66
2024-05-09T15:09:41.573Z,97134.19
2024-05-09T15:12:12.435Z,97135.16
2024-05-09T15:14:40.737Z,97127.09
2024-05-09T15:17:14.255Z,97126.06
2024-05-09T15:19:45.376Z,97120.50
2024-05-09T15:22:16.573Z,97121.72
2024-05-09T15:24:45.257Z,97122.22
2024-05-09T15:27:16.280Z,97118.72
2024-05-09T15:29:44.628Z,97109.72
2024-05-09T15:32:18.118Z,97101.75
2024-05-09T15:34:46.421Z,97103.25
2024-05-09T15:37:17.749Z,97101.25
2024-05-09T15:39:46.303Z,97101.44
2024-05-09T15:42:17.136Z,97102.34
2024-05-09T15:44:45.715Z,97105.75
2024-05-09T15:47:19.197Z,97112.72
2024-05-09T15:49:48.157Z,97107.72
2024-05-09T15:52:20.394Z,97107.19
2024-05-09T15:54:48.624Z,97108.09
2024-05-09T15:57:19.594Z,97110.81
2024-05-09T15:59:47.982Z,97100.53
2024-05-09T16:02:21.582Z,97106.97
2024-05-09T16:04:49.969Z,97104.97
2024-05-09T16:07:21.978Z,97106.69
2024-05-09T16:09:50.208Z,97106.88
2024-05-09T16:12:21.056Z,97108.59
2024-05-09T16:14:50.766Z,97099.38
2024-05-09T16:17:24.452Z,97106.59
2024-05-09T16:19:53.045Z,97109.06
2024-05-09T16:22:24.016Z,97100.56
2024-05-09T16:24:52.237Z,97099.78
2024-05-09T16:27:23.024Z,97104.25
2024-05-09T16:29:51.242Z,97102.25
2024-05-09T16:32:24.740Z,97092.03
2024-05-09T16:34:52.964Z,97097.31
2024-05-09T16:37:25.890Z,97089.09
2024-05-09T16:39:55.704Z,97096.31
2024-05-09T16:42:26.506Z,97093.00
2024-05-09T16:44:57.177Z,97095.97
2024-05-09T16:47:30.840Z,97092.19
2024-05-09T16:49:58.981Z,97093.47
2024-05-09T16:52:29.894Z,97085.44
2024-05-09T16:54:58.174Z,97088.66
2024-05-09T16:57:29.434Z,97091.13
2024-05-09T16:59:57.585Z,97091.63
2024-05-09T17:02:31.236Z,97088.59
2024-05-09T17:04:59.625Z,97094.84
2024-05-09T17:07:30.792Z,97093.06
2024-05-09T17:09:59.042Z,97098.53
2024-05-09T17:12:30.077Z,97093.06
2024-05-09T17:15:01.135Z,97095.03
2024-05-09T17:17:34.880Z,97097.03
2024-05-09T17:20:08.583Z,97098.53
2024-05-09T17:22:40.727Z,97099.03
2024-05-09T17:25:11.697Z,97097.03
2024-05-09T17:27:40.422Z,97093.53
2024-05-09T17:30:17.742Z,97095.59
2024-05-09T17:32:54.917Z,97096.63
2024-05-09T17:35:25.773Z,97092.16
2024-05-09T17:37:54.345Z,97094.16
2024-05-09T17:40:31.431Z,97097.66
2024-05-09T17:43:04.081Z,97104.63
2024-05-09T17:45:37.642Z,97095.66
2024-05-09T17:48:10.364Z,97102.38
2024-05-09T17:50:42.437Z,97096.13
2024-05-09T17:53:11.479Z,97095.38
2024-05-09T17:55:43.047Z,97100.88
2024-05-09T17:58:13.019Z,97098.59
2024-05-09T18:00:44.113Z,97104.09
2024-05-09T18:03:15.200Z,97099.34
2024-05-09T18:05:46.171Z,97101.81
2024-05-09T18:08:14.576Z,97102.59
2024-05-09T18:10:45.492Z,97103.06
2024-05-09T18:13:14.531Z,97102.31
2024-05-09T18:15:45.558Z,97104.28
2024-05-09T18:18:16.644Z,97102.03
2024-05-09T18:20:47.628Z,97108.28
2024-05-09T18:23:18.365Z,97101.28
2024-05-09T18:25:54.599Z,97106.75
2024-05-09T18:28:23.622Z,97102.50
2024-05-09T18:30:54.532Z,97108.97
2024-05-09T18:33:25.487Z,97109.97
2024-05-09T18:35:56.374Z,97098.81
2024-05-09T18:38:28.086Z,97103.59
2024-05-09T18:40:56.275Z,97106.41
2024-05-09T18:43:31.683Z,97103.72
2024-05-09T18:46:06.668Z,97107.75
2024-05-09T18:48:40.424Z,97101.78
2024-05-09T18:51:08.747Z,97106.59
2024-05-09T18:53:40.138Z,97104.88
2024-05-09T18:56:09.469Z,97103.63
2024-05-09T18:58:40.261Z,97102.59
2024-05-09T19:01:08.679Z,97103.56
2024-05-09T19:03:42.513Z,97103.50
2024-05-09T19:06:11.094Z,97099.47
2024-05-09T19:08:41.887Z,97111.66
2024-05-09T19:11:10.186Z,97109.16
2024-05-09T19:13:41.071Z,97111.16
2024-05-09T19:16:10.006Z,97117.59
2024-05-09T19:18:44.703Z,97121.28
2024-05-09T19:21:14.435Z,97119.78
2024-05-09T19:23:50.807Z,97129.72
2024-05-09T19:26:20.562Z,97130.97
2024-05-09T19:28:51.357Z,97132.19
2024-05-09T19:31:19.555Z,97133.44
2024-05-09T19:33:54.389Z,97137.13
2024-05-09T19:36:22.668Z,97140.63
2024-05-09T19:38:54.049Z,97139.13
2024-05-09T19:41:22.674Z,97139.63
2024-05-09T19:43:53.458Z,97143.59
2024-05-09T19:46:22.050Z,97149.56
2024-05-09T19:48:56.044Z,97153.06
2024-05-09T19:51:24.406Z,97157.03
2024-05-09T19:53:55.313Z,97156.28
2024-05-09T19:56:23.633Z,97147.03
2024-05-09T19:58:55.228Z,97156.47
2024-05-09T20:01:23.487Z,97153.47
2024-05-09T20:03:59.300Z,97150.72
2024-05-09T20:06:28.885Z,97160.19
2024-05-09T20:08:59.800Z,97153.94
2024-05-09T20:11:28.112Z,97158.66
2024-05-09T20:13:59.378Z,97157.91
2024-05-09T20:16:27.548Z,97154.91
2024-05-09T20:19:01.276Z,97164.63
2024-05-09T20:21:37.712Z,97164.34
2024-05-09T20:24:09.081Z,97169.06
2024-05-09T20:26:37.227Z,97168.31
2024-05-09T20:29:08.383Z,97171.53
2024-05-09T20:31:36.528Z,97173.06
2024-05-09T20:34:10.051Z,97164.06
2024-05-09T20:36:38.293Z,97158.59
2024-05-09T20:39:09.176Z,97162.84
2024-05-09T20:41:41.256Z,97161.69
2024-05-09T20:44:12.101Z,97156.28
2024-05-09T20:46:40.247Z,97159.81
2024-05-09T20:49:13.877Z,97159.63
2024-05-09T20:51:42.124Z,97151.94
2024-05-09T20:54:12.908Z,97161.97
2024-05-09T20:56:41.270Z,97165.72
2024-05-09T20:59:12.271Z,97159.75
2024-05-09T21:01:40.687Z,97161.50
2024-05-09T21:04:14.239Z,97150.81
2024-05-09T21:06:42.472Z,97164.06
2024-05-09T21:09:13.287Z,97155.34
2024-05-09T21:11:41.451Z,97164.59
2024-05-09T21:14:12.555Z,97160.63
2024-05-09T21:16:41.821Z,97163.66
2024-05-09T21:19:15.550Z,97150.19
2024-05-09T21:21:43.805Z,97155.97
2024-05-09T21:24:14.608Z,97151.22
2024-05-09T21:26:42.880Z,97149.25
2024-05-09T21:29:13.638Z,97154.25
2024-05-09T21:31:42.692Z,97154.25
2024-05-09T21:34:16.455Z,97149.50
2024-05-09T21:36:44.929Z,97159.22
2024-05-09T21:39:15.732Z,97154.50
2024-05-09T21:41:44.118Z,97158.75
2024-05-09T21:44:15.170Z,97153.25
2024-05-09T21:46:43.523Z,97155.50
2024-05-09T21:49:17.960Z,97154.28
2024-05-09T21:51:46.321Z,97156.53
2024-05-09T21:54:23.042Z,97157.78
2024-05-09T21:56:52.099Z,97155.50
2024-05-09T21:59:23.175Z,97154.28
2024-05-09T22:01:51.568Z,97139.34
2024-05-09T22:04:25.141Z,97139.63
2024-05-09T22:06:53.454Z,97141.88
2024-05-09T22:09:24.325Z,97148.88
2024-05-09T22:11:53.939Z,97149.16
2024-05-09T22:14:25.382Z,97140.44
2024-05-09T22:16:53.713Z,97145.94
2024-05-09T22:19:27.408Z,97151.41
2024-05-09T22:21:55.858Z,97158.41
2024-05-09T22:24:27.282Z,97146.22
2024-05-09T22:26:55.862Z,97155.47
2024-05-09T22:29:26.649Z,97148.75
2024-05-09T22:31:54.875Z,97156.97
2024-05-09T22:34:29.950Z,97159.97
2024-05-09T22:37:01.776Z,97145.75
2024-05-09T22:39:39.627Z,97149.25
2024-05-09T22:42:09.688Z,97141.78
2024-05-09T22:44:40.855Z,97145.28
2024-05-09T22:47:09.343Z,97146.78
2024-05-09T22:49:43.147Z,97148.03
2024-05-09T22:52:11.586Z,97141.03
2024-05-09T22:54:42.728Z,97141.50
2024-05-09T22:57:11.074Z,97135.00
2024-05-09T22:59:42.033Z,97138.50
2024-05-09T23:02:10.367Z,97139.50
2024-05-09T23:04:44.087Z,97141.03
2024-05-09T23:07:12.588Z,97142.03
2024-05-09T23:09:43.555Z,97128.59
2024-05-09T23:12:11.818Z,97140.31
2024-05-09T23:14:42.647Z,97135.09
2024-05-09T23:17:11.036Z,97132.63
2024-05-09T23:19:44.546Z,97144.38
2024-05-09T23:22:14.295Z,97133.66
2024-05-09T23:24:45.199Z,97137.16
2024-05-09T23:27:13.481Z,97136.66
2024-05-09T23:29:44.321Z,97131.41
2024-05-09T23:32:15.771Z,97131.69
2024-05-09T23:34:49.313Z,97139.94
2024-05-09T23:37:17.739Z,97133.94
2024-05-09T23:39:48.680Z,97136.69
2024-05-09T23:42:17.210Z,97132.22
2024-05-09T23:44:48.022Z,97125.50
2024-05-09T23:47:16.289Z,97127.75
2024-05-09T23:49:49.884Z,97123.78
2024-05-09T23:52:18.322Z,97119.31
2024-05-09T23:54:49.201Z,97129.53
2024-05-09T23:57:17.617Z,97129.53
2024-05-09T23:59:48.530Z,97120.06
